Time;durP1;ratioP1;P1;durP2;ratioP2;P2;SDS_P1;SDS_P2;PMS_P1;PMS_P2;Temp;Humidity;BMP_temperature;BMP_pressure;BME280_temperature;BME280_humidity;BME280_pressure;Samples;Min_cycle;Max_cycle;Signal;HPM_P1;HPM_P2
2023/09/09 00:01:33;;;;;;;23.35;21.08;;;20.20;99.90;;;;;;5002379;28;20049;-58
2023/09/09 00:04:04;;;;;;;19.55;17.75;;;20.20;99.90;;;;;;5004749;28;20049;-59
2023/09/09 00:06:32;;;;;;;25.27;22.55;;;20.20;99.90;;;;;;5004763;28;20046;-59
2023/09/09 00:08:58;;;;;;;24.38;21.98;;;20.20;99.90;;;;;;4982121;28;20418;-59
2023/09/09 00:11:24;;;;;;;24.65;22.27;;;20.20;99.90;;;;;;4999608;28;20041;-59
2023/09/09 00:13:53;;;;;;;22.77;20.25;;;20.10;99.90;;;;;;5001485;28;20085;-59
2023/09/09 00:16:19;;;;;;;23.40;21.10;;;20.10;99.90;;;;;;4997738;28;20126;-59
2023/09/09 00:18:44;;;;;;;23.48;21.27;;;20.10;99.90;;;;;;5017316;28;20481;-59
2023/09/09 00:21:10;;;;;;;21.63;19.52;;;20.00;99.90;;;;;;5001377;28;20050;-59
2023/09/09 00:23:36;;;;;;;23.65;21.42;;;20.00;99.90;;;;;;5003266;28;20374;-59
2023/09/09 00:26:01;;;;;;;21.88;19.73;;;19.90;99.90;;;;;;4999356;28;20424;-59
2023/09/09 00:28:27;;;;;;;23.90;21.63;;;19.90;99.90;;;;;;4996060;28;20054;-59
2023/09/09 00:30:54;;;;;;;24.60;22.33;;;19.90;99.90;;;;;;5001106;28;20052;-59
2023/09/09 00:33:19;;;;;;;24.30;22.10;;;19.90;99.90;;;;;;4996780;28;20109;-58
2023/09/09 00:35:45;;;;;;;22.30;20.20;;;19.80;99.90;;;;;;4999654;28;20124;-58
2023/09/09 00:38:14;;;;;;;22.65;20.38;;;19.90;99.90;;;;;;4995753;28;20050;-58
2023/09/09 00:41:04;;;;;;;19.42;17.52;;;19.80;99.90;;;;;;4983728;28;20144;-59
2023/09/09 00:43:29;;;;;;;24.25;21.85;;;19.80;99.90;;;;;;5006289;28;20045;-58
2023/09/09 00:45:58;;;;;;;22.15;20.00;;;19.80;99.90;;;;;;5000882;28;20054;-59
2023/09/09 00:48:23;;;;;;;21.98;19.77;;;19.80;99.90;;;;;;5000691;28;20042;-59
2023/09/09 00:50:49;;;;;;;20.23;18.25;;;19.70;99.90;;;;;;5002366;28;20085;-59
2023/09/09 00:53:15;;;;;;;16.80;15.05;;;19.70;99.90;;;;;;4994002;28;20103;-58
2023/09/09 00:55:43;;;;;;;17.55;15.68;;;19.70;99.90;;;;;;5006525;28;20172;-59
2023/09/09 00:58:12;;;;;;;22.75;20.52;;;19.70;99.90;;;;;;5006336;28;20042;-59
2023/09/09 01:00:38;;;;;;;22.67;20.48;;;19.70;99.90;;;;;;5006260;28;20099;-58
2023/09/09 01:03:05;;;;;;;29.73;23.85;;;19.70;99.90;;;;;;4982723;28;20041;-58
2023/09/09 01:05:32;;;;;;;25.02;22.55;;;19.60;99.90;;;;;;4996324;28;20054;-58
2023/09/09 01:08:01;;;;;;;21.05;19.15;;;19.60;99.90;;;;;;4997729;28;20041;-58
2023/09/09 01:10:26;;;;;;;20.65;18.50;;;19.50;99.90;;;;;;5008262;28;20057;-58
2023/09/09 01:12:52;;;;;;;18.95;17.15;;;19.50;99.90;;;;;;5002599;28;20728;-59
2023/09/09 01:15:21;;;;;;;19.85;17.95;;;19.50;99.90;;;;;;5003405;28;20533;-59
2023/09/09 01:17:48;;;;;;;21.13;19.05;;;19.50;99.90;;;;;;4996975;28;20054;-59
2023/09/09 01:20:17;;;;;;;21.55;19.38;;;19.40;99.90;;;;;;4989725;28;20053;-58
2023/09/09 01:22:46;;;;;;;20.75;18.85;;;19.40;99.90;;;;;;4998762;28;20100;-59
2023/09/09 01:25:12;;;;;;;17.55;15.95;;;19.40;99.90;;;;;;4968400;28;20050;-59
2023/09/09 01:27:39;;;;;;;18.20;16.60;;;19.40;99.90;;;;;;4984753;28;20057;-59
2023/09/09 01:30:06;;;;;;;18.73;17.02;;;19.40;99.90;;;;;;5015936;28;20129;-58
2023/09/09 01:32:32;;;;;;;18.23;16.33;;;19.30;99.90;;;;;;5001371;28;20080;-59
2023/09/09 01:34:57;;;;;;;17.10;15.50;;;19.30;99.90;;;;;;4988212;28;20066;-58
2023/09/09 01:37:23;;;;;;;13.05;11.75;;;19.30;99.90;;;;;;5001097;28;20041;-58
2023/09/09 01:39:49;;;;;;;16.30;14.93;;;19.20;99.90;;;;;;4998155;28;20075;-58
2023/09/09 01:42:15;;;;;;;16.98;15.52;;;19.30;99.90;;;;;;4997441;28;20112;-58
2023/09/09 01:44:44;;;;;;;16.08;14.68;;;19.20;99.90;;;;;;4995955;28;20038;-58
2023/09/09 01:47:10;;;;;;;16.65;15.13;;;19.30;99.90;;;;;;4999901;28;20046;-58
2023/09/09 01:49:36;;;;;;;15.55;14.05;;;19.20;99.90;;;;;;4991538;28;20058;-58
2023/09/09 01:52:04;;;;;;;15.52;14.13;;;19.20;99.90;;;;;;4999153;28;20052;-59
2023/09/09 01:54:30;;;;;;;11.90;10.90;;;19.20;99.90;;;;;;4982889;28;20046;-59
2023/09/09 01:56:56;;;;;;;13.00;11.85;;;19.10;99.90;;;;;;4970835;28;20210;-59
2023/09/09 01:59:21;;;;;;;14.55;13.35;;;19.10;99.90;;;;;;4998582;28;20038;-58
2023/09/09 02:01:47;;;;;;;15.07;13.88;;;19.10;99.90;;;;;;4984658;28;20108;-58
2023/09/09 02:04:13;;;;;;;12.07;10.90;;;19.00;99.90;;;;;;4981964;28;20350;-59
2023/09/09 02:06:39;;;;;;;12.02;10.93;;;19.00;99.90;;;;;;5014215;28;20049;-57
2023/09/09 02:09:05;;;;;;;15.90;14.60;;;19.00;99.90;;;;;;5010329;28;20038;-58
2023/09/09 02:11:30;;;;;;;13.90;12.60;;;19.00;99.90;;;;;;5001575;28;20052;-59
2023/09/09 02:13:56;;;;;;;12.20;11.20;;;19.00;99.90;;;;;;4998213;28;20141;-58
2023/09/09 02:16:22;;;;;;;15.27;13.90;;;18.90;99.90;;;;;;5001302;28;20068;-59
2023/09/09 02:18:48;;;;;;;14.00;12.80;;;18.90;99.90;;;;;;4963878;28;20042;-58
2023/09/09 02:21:13;;;;;;;15.30;13.90;;;18.90;99.90;;;;;;5002517;28;20127;-58
2023/09/09 02:23:41;;;;;;;14.13;12.82;;;18.90;99.90;;;;;;4997955;28;20169;-59
2023/09/09 02:26:08;;;;;;;14.80;13.38;;;18.90;99.90;;;;;;5001484;28;20508;-58
2023/09/09 02:28:34;;;;;;;15.02;13.68;;;18.90;99.90;;;;;;4997985;28;20412;-59
2023/09/09 02:31:00;;;;;;;14.50;12.95;;;18.80;99.90;;;;;;5000545;28;20061;-58
2023/09/09 02:33:26;;;;;;;13.98;12.68;;;18.80;99.90;;;;;;4995934;28;20448;-57
2023/09/09 02:35:52;;;;;;;17.65;15.95;;;18.80;99.90;;;;;;4996270;28;20046;-58
2023/09/09 02:38:17;;;;;;;17.40;15.75;;;18.80;99.90;;;;;;4982589;28;20049;-57
2023/09/09 02:40:43;;;;;;;16.63;15.02;;;18.80;99.90;;;;;;5000155;28;20069;-58
2023/09/09 02:43:10;;;;;;;14.32;13.02;;;18.70;99.90;;;;;;4981860;28;20422;-59
2023/09/09 02:45:37;;;;;;;12.15;11.05;;;18.70;99.90;;;;;;5003942;28;20103;-58
2023/09/09 02:48:04;;;;;;;13.98;12.57;;;18.70;99.90;;;;;;4988124;28;20172;-58
2023/09/09 02:50:29;;;;;;;13.40;12.20;;;18.70;99.90;;;;;;4986972;28;20213;-58
2023/09/09 02:52:55;;;;;;;14.93;13.55;;;18.60;99.90;;;;;;5002753;28;20046;-58
2023/09/09 02:55:21;;;;;;;13.60;12.40;;;18.60;99.90;;;;;;5016101;28;20125;-58
2023/09/09 02:57:48;;;;;;;16.33;14.70;;;18.60;99.90;;;;;;4980054;28;20457;-58
2023/09/09 03:00:15;;;;;;;15.02;13.70;;;18.60;99.90;;;;;;4998725;28;20073;-58
2023/09/09 03:02:42;;;;;;;16.02;14.63;;;18.60;99.90;;;;;;5004842;28;20038;-57
2023/09/09 03:05:11;;;;;;;16.27;14.88;;;18.60;99.90;;;;;;5002721;28;20583;-58
2023/09/09 03:07:37;;;;;;;15.82;14.30;;;18.60;99.90;;;;;;5000225;28;20053;-59
2023/09/09 03:10:03;;;;;;;14.73;13.32;;;18.50;99.90;;;;;;5002679;28;20069;-58
2023/09/09 03:12:30;;;;;;;13.52;12.23;;;18.50;99.90;;;;;;5003846;28;20099;-58
2023/09/09 03:14:55;;;;;;;15.77;14.38;;;18.50;99.90;;;;;;5000695;28;20058;-58
2023/09/09 03:17:21;;;;;;;11.57;10.55;;;18.50;99.90;;;;;;5015066;28;20296;-58
2023/09/09 03:19:47;;;;;;;13.93;12.63;;;18.50;99.90;;;;;;5016527;28;20069;-58
2023/09/09 03:22:13;;;;;;;18.05;16.30;;;18.50;99.90;;;;;;5001191;28;20061;-58
2023/09/09 03:24:39;;;;;;;14.73;13.23;;;18.50;99.90;;;;;;5001929;28;20060;-58
2023/09/09 03:27:05;;;;;;;16.85;15.18;;;18.50;99.90;;;;;;5001243;28;20473;-58
2023/09/09 03:29:30;;;;;;;17.67;15.82;;;18.50;99.90;;;;;;5002161;28;20041;-58
2023/09/09 03:31:56;;;;;;;12.02;10.93;;;18.50;99.90;;;;;;4985073;28;20111;-58
2023/09/09 03:34:22;;;;;;;17.15;15.52;;;18.50;99.90;;;;;;5003270;28;20128;-58
2023/09/09 03:36:48;;;;;;;17.00;15.40;;;18.50;99.90;;;;;;4984071;28;20346;-58
2023/09/09 03:39:16;;;;;;;17.88;16.00;;;18.50;99.90;;;;;;5011856;28;20037;-58
2023/09/09 03:41:42;;;;;;;17.15;15.55;;;18.40;99.90;;;;;;5015402;28;20057;-57
2023/09/09 03:44:10;;;;;;;17.00;15.38;;;18.40;99.90;;;;;;4999873;28;20072;-58
2023/09/09 03:46:36;;;;;;;15.13;13.27;;;18.40;99.90;;;;;;4986104;28;20042;-58
2023/09/09 03:49:02;;;;;;;13.60;12.13;;;18.30;99.90;;;;;;4997315;28;20050;-58
2023/09/09 03:51:28;;;;;;;17.92;16.27;;;18.30;99.90;;;;;;5003039;28;20037;-58
2023/09/09 03:57:34;;;;;;;18.40;16.75;;;18.30;99.90;;;;;;4997351;28;20063;-57
2023/09/09 04:00:00;;;;;;;17.17;15.60;;;18.30;99.90;;;;;;4999381;28;20493;-58
2023/09/09 04:02:25;;;;;;;14.90;13.40;;;18.30;99.90;;;;;;5001287;28;20128;-58
2023/09/09 04:04:57;;;;;;;18.20;16.50;;;18.20;99.90;;;;;;4999825;28;20057;-57
2023/09/09 04:07:23;;;;;;;18.17;16.38;;;18.30;99.90;;;;;;5001884;28;20140;-57
2023/09/09 04:09:49;;;;;;;19.23;16.67;;;18.20;99.90;;;;;;5005889;28;20176;-56
2023/09/09 04:12:14;;;;;;;15.23;13.70;;;18.20;99.90;;;;;;4989094;28;20523;-58
2023/09/09 04:14:40;;;;;;;17.30;15.77;;;18.20;99.90;;;;;;5009379;28;20041;-58
2023/09/09 04:17:07;;;;;;;14.20;12.80;;;18.20;99.90;;;;;;4988348;28;20504;-58
2023/09/09 04:19:33;;;;;;;15.70;14.40;;;18.20;99.90;;;;;;4997475;28;20042;-58
2023/09/09 04:21:59;;;;;;;15.07;13.55;;;18.10;99.90;;;;;;4999115;28;20137;-58
2023/09/09 04:24:25;;;;;;;15.40;14.07;;;18.10;99.90;;;;;;4984516;28;20492;-58
2023/09/09 04:26:51;;;;;;;14.55;13.35;;;18.10;99.90;;;;;;4985251;28;20512;-58
2023/09/09 04:29:17;;;;;;;14.20;12.77;;;18.10;99.90;;;;;;5003785;28;20034;-58
2023/09/09 04:31:43;;;;;;;15.65;14.27;;;18.10;99.90;;;;;;5012648;28;20066;-59
2023/09/09 04:34:13;;;;;;;12.70;11.70;;;18.00;99.90;;;;;;5000424;28;20124;-58
2023/09/09 04:36:42;;;;;;;12.82;11.73;;;18.00;99.90;;;;;;4996348;28;22066;-56
2023/09/09 04:39:08;;;;;;;13.88;12.48;;;18.00;99.90;;;;;;4985834;28;20497;-57
2023/09/09 04:41:33;;;;;;;12.25;11.05;;;17.90;99.90;;;;;;5001076;28;20068;-58
2023/09/09 04:43:59;;;;;;;10.77;9.98;;;17.90;99.90;;;;;;4998404;28;20709;-57
2023/09/09 04:46:28;;;;;;;13.40;12.40;;;17.90;99.90;;;;;;4985057;28;20037;-58
2023/09/09 04:48:54;;;;;;;12.77;11.77;;;17.90;99.90;;;;;;4996134;28;20070;-58
2023/09/09 04:51:19;;;;;;;12.05;11.05;;;17.90;99.90;;;;;;4985256;28;20076;-58
2023/09/09 04:53:45;;;;;;;10.50;9.60;;;17.80;99.90;;;;;;5000577;28;20088;-58
2023/09/09 04:56:13;;;;;;;14.68;13.43;;;17.80;99.90;;;;;;5000539;28;20361;-58
2023/09/09 04:58:39;;;;;;;13.35;12.25;;;17.80;99.90;;;;;;5000012;28;20034;-58
2023/09/09 05:01:05;;;;;;;13.90;12.70;;;17.70;99.90;;;;;;5001296;28;20056;-58
2023/09/09 05:03:30;;;;;;;16.90;15.40;;;17.70;99.90;;;;;;4983166;28;20046;-57
2023/09/09 05:05:56;;;;;;;12.93;11.68;;;17.70;99.90;;;;;;4999390;28;20056;-58
2023/09/09 05:08:22;;;;;;;15.98;14.77;;;17.70;99.90;;;;;;4983960;28;20046;-58
2023/09/09 05:10:47;;;;;;;18.77;17.27;;;17.70;99.90;;;;;;5000494;28;20072;-58
2023/09/09 05:13:13;;;;;;;15.93;14.63;;;17.60;99.90;;;;;;4999197;28;20125;-58
2023/09/09 05:15:39;;;;;;;11.18;10.27;;;17.60;99.90;;;;;;4998194;28;20408;-58
2023/09/09 05:18:04;;;;;;;24.63;22.50;;;17.50;99.90;;;;;;4998150;28;20056;-57
2023/09/09 05:20:30;;;;;;;23.00;21.10;;;17.50;99.90;;;;;;4982404;28;20791;-56
2023/09/09 05:22:56;;;;;;;17.95;16.42;;;17.50;99.90;;;;;;5002322;28;20109;-56
2023/09/09 05:25:22;;;;;;;17.15;15.77;;;17.50;99.90;;;;;;5001595;28;20093;-59
2023/09/09 05:27:47;;;;;;;22.05;20.15;;;17.60;99.90;;;;;;5016348;28;20045;-58
2023/09/09 05:30:14;;;;;;;18.95;17.35;;;17.50;99.90;;;;;;4999345;28;20607;-59
2023/09/09 05:32:40;;;;;;;17.02;15.38;;;17.50;99.90;;;;;;4979682;28;20042;-58
2023/09/09 05:35:06;;;;;;;21.90;20.00;;;17.60;99.90;;;;;;5013337;28;20040;-58
2023/09/09 05:37:32;;;;;;;21.70;19.80;;;17.60;99.90;;;;;;4997670;28;20038;-59
2023/09/09 05:39:58;;;;;;;17.60;15.88;;;17.50;99.90;;;;;;4998901;28;20077;-57
2023/09/09 05:42:24;;;;;;;20.08;18.27;;;17.60;99.90;;;;;;5014377;28;20084;-58
2023/09/09 05:44:49;;;;;;;18.02;16.38;;;17.60;99.90;;;;;;5000708;28;20042;-59
2023/09/09 05:47:15;;;;;;;17.65;16.17;;;17.60;99.90;;;;;;5001678;28;20634;-59
2023/09/09 05:49:44;;;;;;;17.38;15.70;;;17.60;99.90;;;;;;4984211;28;20109;-58
2023/09/09 05:52:12;;;;;;;24.55;22.33;;;17.70;99.90;;;;;;5000054;28;20144;-59
2023/09/09 05:54:38;;;;;;;17.08;15.60;;;17.70;99.90;;;;;;5013093;28;20050;-59
2023/09/09 05:57:04;;;;;;;22.50;20.45;;;17.70;99.90;;;;;;5002090;28;20129;-58
2023/09/09 05:59:30;;;;;;;16.02;14.60;;;17.70;99.90;;;;;;5003105;28;21512;-58
2023/09/09 06:01:56;;;;;;;25.55;23.17;;;17.70;99.90;;;;;;5003884;28;20049;-59
2023/09/09 06:04:22;;;;;;;22.58;20.48;;;17.70;99.90;;;;;;4996754;28;20120;-58
2023/09/09 06:06:48;;;;;;;20.08;18.25;;;17.80;99.90;;;;;;5004354;28;20072;-59
2023/09/09 06:09:15;;;;;;;19.90;18.08;;;17.80;99.90;;;;;;4979091;28;20134;-58
2023/09/09 06:11:40;;;;;;;18.48;16.88;;;17.80;99.90;;;;;;5000702;28;20049;-58
2023/09/09 06:14:06;;;;;;;24.13;21.88;;;17.80;99.90;;;;;;5003516;28;20113;-58
2023/09/09 06:16:32;;;;;;;18.45;16.35;;;17.90;99.90;;;;;;4984560;28;20034;-59
2023/09/09 06:19:01;;;;;;;17.88;16.35;;;18.00;99.90;;;;;;5004024;28;20566;-58
2023/09/09 06:21:27;;;;;;;19.58;17.88;;;18.00;99.90;;;;;;5022820;28;20088;-59
2023/09/09 06:23:54;;;;;;;21.30;19.40;;;18.10;99.90;;;;;;4993225;28;20129;-59
2023/09/09 06:26:20;;;;;;;20.77;18.88;;;18.20;99.90;;;;;;5001425;28;20046;-58
2023/09/09 06:28:46;;;;;;;17.15;15.65;;;18.20;99.90;;;;;;5003060;28;20045;-59
2023/09/09 06:31:11;;;;;;;20.65;18.92;;;18.30;99.90;;;;;;5016751;28;20045;-59
2023/09/09 06:33:37;;;;;;;20.98;19.17;;;18.50;99.90;;;;;;5003078;28;20042;-58
2023/09/09 06:36:05;;;;;;;21.50;19.55;;;18.50;99.90;;;;;;4987673;28;20558;-59
2023/09/09 06:38:31;;;;;;;21.92;20.02;;;18.60;99.90;;;;;;5013934;28;20130;-59
2023/09/09 06:40:57;;;;;;;26.23;23.83;;;18.70;99.90;;;;;;5001722;28;20164;-58
2023/09/09 06:43:23;;;;;;;27.45;24.85;;;18.80;99.90;;;;;;4985846;28;20124;-59
2023/09/09 06:45:49;;;;;;;25.70;23.30;;;18.90;99.90;;;;;;4981372;28;20088;-59
2023/09/09 06:48:17;;;;;;;24.60;22.38;;;19.00;99.90;;;;;;5003476;28;20416;-59
2023/09/09 06:50:47;;;;;;;31.75;29.05;;;19.10;99.90;;;;;;4998428;28;20038;-59
2023/09/09 06:53:13;;;;;;;25.13;22.83;;;19.20;99.90;;;;;;5002246;28;20073;-57
2023/09/09 06:55:41;;;;;;;33.13;30.15;;;19.30;99.90;;;;;;5003743;28;20377;-59
2023/09/09 06:58:07;;;;;;;29.77;27.05;;;19.40;99.90;;;;;;4982513;28;20497;-59
2023/09/09 07:00:33;;;;;;;35.35;32.03;;;19.50;99.90;;;;;;5000096;28;20128;-59
2023/09/09 07:03:00;;;;;;;32.28;29.17;;;19.60;99.90;;;;;;5003664;28;20042;-59
2023/09/09 07:05:25;;;;;;;34.58;31.25;;;19.70;99.90;;;;;;5004749;28;20042;-59
2023/09/09 07:07:54;;;;;;;42.22;38.00;;;19.90;99.90;;;;;;5000139;28;20033;-59
2023/09/09 07:10:20;;;;;;;52.50;44.00;;;20.00;99.90;;;;;;5002425;28;20551;-59
2023/09/09 07:12:45;;;;;;;45.97;41.38;;;20.20;99.90;;;;;;4986181;28;20037;-59
2023/09/09 07:15:11;;;;;;;38.20;34.42;;;20.30;99.90;;;;;;5003312;28;20054;-58
2023/09/09 07:17:37;;;;;;;42.30;38.08;;;20.50;99.90;;;;;;4984157;28;20449;-60
2023/09/09 07:20:03;;;;;;;37.42;33.72;;;20.50;99.90;;;;;;4997787;28;20046;-59
2023/09/09 07:22:29;;;;;;;41.42;37.00;;;20.60;99.90;;;;;;5000862;28;20042;-58
2023/09/09 07:24:54;;;;;;;38.35;33.75;;;20.60;99.90;;;;;;5015876;28;20046;-59
2023/09/09 07:27:20;;;;;;;44.22;39.53;;;20.70;99.90;;;;;;5002739;28;20046;-58
2023/09/09 07:29:46;;;;;;;48.42;43.35;;;20.90;99.90;;;;;;5002873;28;20108;-58
2023/09/09 07:32:11;;;;;;;44.15;39.75;;;21.00;99.90;;;;;;5000307;28;20061;-57
2023/09/09 07:34:37;;;;;;;40.90;36.70;;;21.00;99.90;;;;;;4999695;28;20503;-59
2023/09/09 07:37:03;;;;;;;58.25;52.22;;;21.10;99.90;;;;;;4988270;28;20042;-60
2023/09/09 07:39:29;;;;;;;41.20;37.10;;;21.20;99.90;;;;;;5004334;28;20042;-59
2023/09/09 07:41:54;;;;;;;48.80;43.80;;;21.40;99.90;;;;;;5016541;28;20136;-59
2023/09/09 07:44:20;;;;;;;57.30;51.42;;;21.50;99.90;;;;;;4999004;28;20366;-60
2023/09/09 07:46:46;;;;;;;48.15;42.90;;;21.60;99.90;;;;;;5001136;28;20096;-61
2023/09/09 07:49:11;;;;;;;57.92;51.83;;;21.60;99.90;;;;;;5001506;28;20049;-61
2023/09/09 07:51:38;;;;;;;57.30;51.13;;;21.70;99.90;;;;;;5001875;28;20045;-58
2023/09/09 07:54:03;;;;;;;63.47;56.63;;;21.80;99.90;;;;;;5002197;28;20048;-59
2023/09/09 07:56:29;;;;;;;64.28;57.47;;;21.80;99.90;;;;;;5002613;28;20042;-57
2023/09/09 07:58:55;;;;;;;62.67;55.88;;;21.90;99.90;;;;;;5002302;28;20037;-58
2023/09/09 08:01:20;;;;;;;66.43;59.35;;;22.00;99.90;;;;;;5000348;28;20050;-58
2023/09/09 08:03:46;;;;;;;66.70;59.55;;;22.10;99.90;;;;;;4999537;28;20512;-58
2023/09/09 08:06:12;;;;;;;68.60;61.25;;;22.10;99.90;;;;;;5001717;28;20527;-59
2023/09/09 08:08:38;;;;;;;67.68;60.38;;;22.20;99.90;;;;;;4968784;28;20097;-59
2023/09/09 08:11:04;;;;;;;67.97;60.65;;;22.30;99.90;;;;;;4997214;28;20398;-57
2023/09/09 08:13:30;;;;;;;67.40;60.35;;;22.30;99.90;;;;;;5003403;28;20108;-58
2023/09/09 08:15:58;;;;;;;71.00;63.55;;;22.40;99.90;;;;;;5001485;28;20544;-59
2023/09/09 08:18:24;;;;;;;68.80;61.63;;;22.50;99.90;;;;;;5000607;28;20096;-58
2023/09/09 08:20:50;;;;;;;69.18;62.20;;;22.50;99.90;;;;;;5000251;28;20049;-58
2023/09/09 08:23:17;;;;;;;77.40;69.38;;;22.60;99.90;;;;;;4986657;28;20068;-59
2023/09/09 08:25:43;;;;;;;78.40;70.18;;;22.60;99.90;;;;;;5001432;28;20045;-59
2023/09/09 08:28:09;;;;;;;71.93;64.43;;;22.70;99.90;;;;;;5003655;28;20038;-58
2023/09/09 08:30:38;;;;;;;72.90;65.25;;;22.80;99.90;;;;;;5008836;28;20042;-59
2023/09/09 08:33:04;;;;;;;70.60;63.35;;;22.90;99.90;;;;;;5001829;28;20523;-58
2023/09/09 08:35:31;;;;;;;69.57;62.45;;;23.10;99.90;;;;;;5001454;28;20136;-57
2023/09/09 08:37:58;;;;;;;70.65;63.25;;;23.10;99.90;;;;;;5019263;28;20172;-60
2023/09/09 08:40:25;;;;;;;62.00;55.55;;;23.20;99.90;;;;;;4989472;28;20038;-59
2023/09/09 08:43:19;;;;;;;61.78;55.30;;;23.20;99.90;;;;;;5025381;28;20038;-58
2023/09/09 08:45:51;;;;;;;;;;;23.30;99.90;;;;;;5006051;28;20064;-59
2023/09/09 08:48:18;;;;;;;55.40;49.67;;;23.30;99.90;;;;;;5007328;28;20008;-59
2023/09/09 08:50:47;;;;;;;50.63;45.42;;;23.50;99.90;;;;;;5006091;28;20438;-59
2023/09/09 08:53:15;;;;;;;49.35;44.10;;;23.60;99.90;;;;;;5003554;28;20042;-59
2023/09/09 08:55:41;;;;;;;41.72;37.58;;;23.70;99.90;;;;;;5001879;28;20076;-58
2023/09/09 08:58:07;;;;;;;44.53;39.92;;;23.80;99.90;;;;;;5002931;28;20129;-58
2023/09/09 09:00:36;;;;;;;41.13;36.63;;;23.90;99.90;;;;;;5001781;28;20118;-59
2023/09/09 09:03:02;;;;;;;40.80;36.67;;;24.00;99.90;;;;;;5003571;28;20055;-57
2023/09/09 09:05:32;;;;;;;40.53;36.42;;;24.10;99.90;;;;;;5003045;28;20406;-59
2023/09/09 09:07:58;;;;;;;35.88;32.10;;;24.30;99.90;;;;;;5003953;28;20046;-59
2023/09/09 09:10:24;;;;;;;37.58;33.50;;;24.40;99.90;;;;;;5023708;28;20472;-59
2023/09/09 09:12:50;;;;;;;36.00;32.08;;;24.50;99.90;;;;;;5001470;28;20050;-59
2023/09/09 09:15:16;;;;;;;34.97;31.42;;;24.50;99.90;;;;;;4982372;28;20038;-58
2023/09/09 09:17:45;;;;;;;33.60;30.20;;;24.40;99.90;;;;;;5000328;28;20038;-58
2023/09/09 09:20:33;;;;;;;33.45;29.92;;;24.50;99.90;;;;;;5000688;28;20045;-58
2023/09/09 09:23:04;;;;;;;28.77;25.73;;;24.70;99.90;;;;;;5003086;28;20038;-58
2023/09/09 09:25:40;;;;;;;31.35;27.67;;;24.80;99.90;;;;;;5003504;28;20117;-59
2023/09/09 09:28:08;;;;;;;26.63;23.83;;;24.80;99.90;;;;;;5009927;28;20047;-59
2023/09/09 09:30:37;;;;;;;24.35;21.70;;;24.90;99.90;;;;;;5006583;28;20513;-58
2023/09/09 09:33:03;;;;;;;26.52;23.63;;;25.10;99.90;;;;;;4998551;28;20041;-58
2023/09/09 09:35:30;;;;;;;22.95;20.65;;;25.10;99.90;;;;;;4986414;28;20034;-58
2023/09/09 09:37:57;;;;;;;27.08;24.30;;;25.10;99.90;;;;;;5001359;28;20048;-57
2023/09/09 09:40:24;;;;;;;27.35;24.60;;;25.30;99.90;;;;;;4999985;28;20125;-58
2023/09/09 09:42:50;;;;;;;28.73;25.70;;;25.30;99.90;;;;;;5003884;28;20049;-59
2023/09/09 09:45:17;;;;;;;28.95;25.98;;;25.30;99.90;;;;;;4984989;28;20094;-59
2023/09/09 09:47:50;;;;;;;30.20;26.92;;;25.20;99.90;;;;;;5000952;28;20048;-59
2023/09/09 09:50:34;;;;;;;26.20;23.45;;;25.20;99.90;;;;;;5005047;28;20519;-60
2023/09/09 09:53:08;;;;;;;;;;;25.40;99.90;;;;;;5000420;28;20041;-60
2023/09/09 09:55:36;;;;;;;26.52;23.73;;;25.50;99.90;;;;;;5003682;28;20035;-60
2023/09/09 09:58:04;;;;;;;27.63;24.77;;;25.70;99.90;;;;;;4999082;28;20038;-60
2023/09/09 10:00:33;;;;;;;27.10;24.20;;;25.80;99.90;;;;;;5003566;28;20034;-59
2023/09/09 10:03:01;;;;;;;25.67;22.77;;;25.90;99.90;;;;;;5001136;28;20120;-59
2023/09/09 10:05:31;;;;;;;27.10;24.05;;;26.00;99.90;;;;;;5018045;28;20080;-59
2023/09/09 10:08:19;;;;;;;24.40;21.80;;;26.10;99.90;;;;;;5016647;28;20057;-60
2023/09/09 10:10:55;;;;;;;23.95;21.42;;;26.10;99.90;;;;;;5020638;28;20038;-58
2023/09/09 10:13:30;;;;;;;25.00;21.80;;;26.10;99.90;;;;;;5006181;28;20133;-58
2023/09/09 10:15:58;;;;;;;23.05;20.48;;;26.20;99.90;;;;;;5000418;28;20060;-60
2023/09/09 10:18:26;;;;;;;23.85;21.45;;;26.30;99.90;;;;;;5011705;28;20211;-57
2023/09/09 10:20:53;;;;;;;22.25;19.95;;;26.30;99.90;;;;;;4984422;28;20415;-58
2023/09/09 10:23:24;;;;;;;21.83;19.55;;;26.30;99.60;;;;;;5004748;28;20037;-58
2023/09/09 10:25:50;;;;;;;20.48;18.08;;;26.30;99.40;;;;;;4986368;28;20080;-58
2023/09/09 10:28:20;;;;;;;19.70;17.23;;;26.40;99.90;;;;;;4983041;28;20093;-60
2023/09/09 10:30:49;;;;;;;19.52;17.35;;;26.40;99.50;;;;;;4998275;28;20129;-60
2023/09/09 10:33:17;;;;;;;20.58;18.48;;;26.50;99.50;;;;;;5012999;28;20322;-58
2023/09/09 10:35:45;;;;;;;21.75;17.27;;;26.50;99.10;;;;;;4997208;28;20414;-57
2023/09/09 10:38:13;;;;;;;18.92;16.92;;;26.50;98.40;;;;;;4998317;28;20054;-57
2023/09/09 10:40:40;;;;;;;18.15;15.40;;;26.50;98.60;;;;;;5019099;28;20262;-60
2023/09/09 10:43:06;;;;;;;16.40;14.23;;;26.50;98.70;;;;;;5015803;28;20071;-59
2023/09/09 10:45:39;;;;;;;14.18;12.55;;;26.50;98.80;;;;;;4978474;28;20163;-59
2023/09/09 10:48:07;;;;;;;14.75;13.35;;;26.70;98.90;;;;;;4985250;28;20525;-61
2023/09/09 10:50:41;;;;;;;15.48;13.80;;;26.90;97.90;;;;;;5018347;28;20143;-61
2023/09/09 10:53:19;;;;;;;14.68;13.18;;;26.90;97.20;;;;;;5001686;28;20049;-60
2023/09/09 10:55:46;;;;;;;14.40;12.82;;;26.90;98.20;;;;;;5001900;28;20099;-60
2023/09/09 10:58:19;;;;;;;15.60;14.02;;;27.10;97.60;;;;;;5002173;28;20044;-59
2023/09/09 11:00:47;;;;;;;14.07;12.57;;;27.00;97.70;;;;;;5005145;28;20041;-58
2023/09/09 11:03:24;;;;;;;14.55;13.05;;;27.20;98.00;;;;;;5014598;28;20272;-60
2023/09/09 11:06:04;;;;;;;13.90;11.57;;;27.30;97.40;;;;;;5006703;28;20457;-60
2023/09/09 11:08:39;;;;;;;14.70;13.23;;;27.30;97.50;;;;;;5006722;28;20045;-58
2023/09/09 11:11:16;;;;;;;14.93;12.77;;;27.40;97.00;;;;;;5009576;28;20117;-60
2023/09/09 11:13:53;;;;;;;14.00;12.45;;;27.50;97.00;;;;;;5023500;28;20099;-58
2023/09/09 11:16:40;;;;;;;15.27;11.95;;;27.60;97.10;;;;;;5007889;28;20033;-58
2023/09/09 11:19:07;;;;;;;15.30;13.15;;;27.70;97.40;;;;;;5019685;28;20544;-57
2023/09/09 11:21:39;;;;;;;14.27;12.70;;;27.70;96.20;;;;;;5003183;28;20516;-58
2023/09/09 11:24:05;;;;;;;13.02;10.65;;;27.70;97.00;;;;;;5007608;28;20281;-58
2023/09/09 11:26:31;;;;;;;17.67;13.43;;;27.50;96.90;;;;;;5008558;28;20057;-58
2023/09/09 11:28:58;;;;;;;12.88;11.13;;;27.30;96.60;;;;;;5011250;28;20057;-60
2023/09/09 11:31:30;;;;;;;11.27;10.15;;;27.50;97.00;;;;;;5006902;28;20061;-60
2023/09/09 11:33:57;;;;;;;13.68;11.40;;;27.60;97.10;;;;;;4996141;28;20054;-60
2023/09/09 11:36:23;;;;;;;13.45;10.55;;;27.70;96.10;;;;;;5005046;28;20041;-57
2023/09/09 11:38:49;;;;;;;11.63;9.10;;;27.60;96.50;;;;;;5013299;28;20389;-57
2023/09/09 11:41:25;;;;;;;10.27;9.18;;;27.70;96.90;;;;;;5007212;28;20046;-58
2023/09/09 11:44:08;;;;;;;12.65;10.77;;;28.00;96.90;;;;;;5011916;28;20123;-58
2023/09/09 11:46:43;;;;;;;10.07;9.02;;;28.20;96.80;;;;;;5008177;28;20471;-58
2023/09/09 11:49:10;;;;;;;11.38;9.68;;;28.40;96.80;;;;;;5013472;28;20033;-58
2023/09/09 11:51:36;;;;;;;10.68;9.60;;;28.40;95.50;;;;;;4987812;28;20180;-60
2023/09/09 11:54:04;;;;;;;9.20;8.15;;;28.40;96.30;;;;;;4986031;28;20046;-58
2023/09/09 11:56:32;;;;;;;9.80;8.75;;;28.30;95.90;;;;;;4989354;28;20041;-60
2023/09/09 11:58:59;;;;;;;10.48;8.63;;;28.20;94.90;;;;;;5023141;28;20057;-58
2023/09/09 12:01:27;;;;;;;10.00;8.85;;;28.20;96.00;;;;;;5024092;28;20045;-57
2023/09/09 12:04:06;;;;;;;13.52;10.20;;;28.20;95.80;;;;;;5008179;28;20045;-60
2023/09/09 12:06:33;;;;;;;16.77;10.38;;;28.40;95.40;;;;;;4980560;28;20489;-58
2023/09/09 12:08:59;;;;;;;10.80;9.35;;;28.60;95.90;;;;;;4991746;28;20577;-58
2023/09/09 12:11:25;;;;;;;10.63;9.60;;;28.70;95.80;;;;;;4998090;28;20443;-58
2023/09/09 12:13:54;;;;;;;11.80;9.07;;;28.70;94.90;;;;;;5006455;28;20085;-58
2023/09/09 12:16:20;;;;;;;12.02;10.27;;;28.60;94.90;;;;;;5013626;28;20115;-61
2023/09/09 12:18:52;;;;;;;11.48;9.68;;;28.40;94.80;;;;;;5000507;28;20054;-60
2023/09/09 12:21:18;;;;;;;11.80;9.73;;;28.60;95.20;;;;;;5007697;28;20042;-59
2023/09/09 12:23:45;;;;;;;10.32;8.57;;;28.60;94.90;;;;;;4997321;28;20042;-60
2023/09/09 12:26:12;;;;;;;8.85;7.95;;;28.50;95.10;;;;;;4994643;28;20057;-58
2023/09/09 12:28:43;;;;;;;9.68;8.68;;;28.70;95.00;;;;;;5002083;28;20046;-60
2023/09/09 12:31:10;;;;;;;11.38;7.78;;;28.80;94.50;;;;;;5008039;28;20046;-60
2023/09/09 12:33:43;;;;;;;8.68;7.05;;;28.60;94.10;;;;;;4991666;28;20034;-60